sensor_id;sensor_type;location;lat;lon;timestamp;P1;durP1;ratioP1;P2;durP2;ratioP2
62523;SDS011;53689;56.878;60.672;2023-07-20T00:01:07;10.45;;;6.80;;
62523;SDS011;53689;56.878;60.672;2023-07-20T00:03:54;15.43;;;8.32;;
62523;SDS011;53689;56.878;60.672;2023-07-20T00:06:22;12.20;;;8.35;;
62523;SDS011;53689;56.878;60.672;2023-07-20T00:08:50;13.68;;;7.90;;
62523;SDS011;53689;56.878;60.672;2023-07-20T00:11:18;10.07;;;7.45;;
62523;SDS011;53689;56.878;60.672;2023-07-20T00:13:46;11.27;;;6.93;;
62523;SDS011;53689;56.878;60.672;2023-07-20T00:16:14;10.48;;;7.22;;
62523;SDS011;53689;56.878;60.672;2023-07-20T00:18:42;12.80;;;8.02;;
62523;SDS011;53689;56.878;60.672;2023-07-20T00:21:11;9.77;;;7.18;;
62523;SDS011;53689;56.878;60.672;2023-07-20T00:23:38;9.10;;;6.40;;
62523;SDS011;53689;56.878;60.672;2023-07-20T00:26:06;12.57;;;8.10;;
62523;SDS011;53689;56.878;60.672;2023-07-20T00:28:34;8.93;;;6.97;;
62523;SDS011;53689;56.878;60.672;2023-07-20T00:31:02;13.45;;;7.72;;
62523;SDS011;53689;56.878;60.672;2023-07-20T00:33:29;12.85;;;7.13;;
62523;SDS011;53689;56.878;60.672;2023-07-20T00:35:58;9.13;;;7.47;;
62523;SDS011;53689;56.878;60.672;2023-07-20T00:38:27;10.95;;;7.07;;
62523;SDS011;53689;56.878;60.672;2023-07-20T00:40:55;9.80;;;7.28;;
62523;SDS011;53689;56.878;60.672;2023-07-20T00:43:22;10.63;;;6.95;;
62523;SDS011;53689;56.878;60.672;2023-07-20T00:45:50;9.23;;;7.35;;
62523;SDS011;53689;56.878;60.672;2023-07-20T00:48:18;9.52;;;7.30;;
62523;SDS011;53689;56.878;60.672;2023-07-20T00:50:45;10.70;;;7.85;;
62523;SDS011;53689;56.878;60.672;2023-07-20T00:53:14;9.87;;;7.57;;
62523;SDS011;53689;56.878;60.672;2023-07-20T00:55:44;10.27;;;7.35;;
62523;SDS011;53689;56.878;60.672;2023-07-20T00:58:12;9.40;;;7.22;;
62523;SDS011;53689;56.878;60.672;2023-07-20T01:00:40;11.20;;;7.40;;
62523;SDS011;53689;56.878;60.672;2023-07-20T01:03:07;11.27;;;7.32;;
62523;SDS011;53689;56.878;60.672;2023-07-20T01:05:38;11.20;;;7.03;;
62523;SDS011;53689;56.878;60.672;2023-07-20T01:08:15;8.57;;;6.60;;
62523;SDS011;53689;56.878;60.672;2023-07-20T01:10:51;10.32;;;7.13;;
62523;SDS011;53689;56.878;60.672;2023-07-20T01:13:24;10.70;;;7.15;;
62523;SDS011;53689;56.878;60.672;2023-07-20T01:15:56;11.45;;;6.82;;
62523;SDS011;53689;56.878;60.672;2023-07-20T01:18:24;9.60;;;6.97;;
62523;SDS011;53689;56.878;60.672;2023-07-20T01:20:52;9.77;;;7.10;;
62523;SDS011;53689;56.878;60.672;2023-07-20T01:29:31;10.80;;;7.13;;
62523;SDS011;53689;56.878;60.672;2023-07-20T01:32:18;10.65;;;7.43;;
62523;SDS011;53689;56.878;60.672;2023-07-20T01:34:52;8.48;;;6.07;;
62523;SDS011;53689;56.878;60.672;2023-07-20T01:37:21;10.13;;;6.72;;
62523;SDS011;53689;56.878;60.672;2023-07-20T01:39:49;8.93;;;7.00;;
62523;SDS011;53689;56.878;60.672;2023-07-20T01:42:17;7.93;;;6.05;;
62523;SDS011;53689;56.878;60.672;2023-07-20T01:44:45;9.02;;;5.57;;
62523;SDS011;53689;56.878;60.672;2023-07-20T01:47:12;8.88;;;5.97;;
62523;SDS011;53689;56.878;60.672;2023-07-20T01:49:41;10.00;;;7.00;;
62523;SDS011;53689;56.878;60.672;2023-07-20T01:52:09;11.27;;;6.97;;
62523;SDS011;53689;56.878;60.672;2023-07-20T01:54:40;8.10;;;6.13;;
62523;SDS011;53689;56.878;60.672;2023-07-20T01:57:07;9.05;;;6.03;;
62523;SDS011;53689;56.878;60.672;2023-07-20T01:59:35;9.68;;;7.05;;
62523;SDS011;53689;56.878;60.672;2023-07-20T02:02:03;11.23;;;7.38;;
62523;SDS011;53689;56.878;60.672;2023-07-20T02:04:31;8.93;;;6.70;;
62523;SDS011;53689;56.878;60.672;2023-07-20T02:07:00;9.20;;;6.63;;
62523;SDS011;53689;56.878;60.672;2023-07-20T02:09:28;11.68;;;7.30;;
62523;SDS011;53689;56.878;60.672;2023-07-20T02:11:55;8.25;;;6.03;;
62523;SDS011;53689;56.878;60.672;2023-07-20T02:14:23;8.82;;;6.43;;
62523;SDS011;53689;56.878;60.672;2023-07-20T02:16:50;11.73;;;6.53;;
62523;SDS011;53689;56.878;60.672;2023-07-20T02:19:19;6.95;;;5.75;;
62523;SDS011;53689;56.878;60.672;2023-07-20T02:21:47;10.00;;;6.20;;
62523;SDS011;53689;56.878;60.672;2023-07-20T02:24:16;8.10;;;6.43;;
62523;SDS011;53689;56.878;60.672;2023-07-20T02:26:44;10.60;;;5.78;;
62523;SDS011;53689;56.878;60.672;2023-07-20T02:29:12;8.10;;;5.78;;
62523;SDS011;53689;56.878;60.672;2023-07-20T02:31:40;10.05;;;6.18;;
62523;SDS011;53689;56.878;60.672;2023-07-20T02:34:08;8.13;;;5.43;;
62523;SDS011;53689;56.878;60.672;2023-07-20T02:36:35;7.60;;;5.40;;
62523;SDS011;53689;56.878;60.672;2023-07-20T02:39:03;9.55;;;6.30;;
62523;SDS011;53689;56.878;60.672;2023-07-20T02:41:32;8.75;;;5.47;;
62523;SDS011;53689;56.878;60.672;2023-07-20T02:44:00;8.18;;;5.75;;
62523;SDS011;53689;56.878;60.672;2023-07-20T02:46:28;7.13;;;5.90;;
62523;SDS011;53689;56.878;60.672;2023-07-20T02:48:57;8.02;;;5.85;;
62523;SDS011;53689;56.878;60.672;2023-07-20T02:51:25;7.03;;;5.82;;
62523;SDS011;53689;56.878;60.672;2023-07-20T02:53:53;8.50;;;5.40;;
62523;SDS011;53689;56.878;60.672;2023-07-20T02:56:20;7.55;;;5.30;;
62523;SDS011;53689;56.878;60.672;2023-07-20T02:58:50;8.23;;;5.55;;
62523;SDS011;53689;56.878;60.672;2023-07-20T03:01:17;8.20;;;5.40;;
62523;SDS011;53689;56.878;60.672;2023-07-20T03:03:45;7.88;;;5.40;;
62523;SDS011;53689;56.878;60.672;2023-07-20T03:06:13;7.38;;;5.38;;
62523;SDS011;53689;56.878;60.672;2023-07-20T03:08:41;7.95;;;5.60;;
62523;SDS011;53689;56.878;60.672;2023-07-20T03:11:09;8.30;;;5.40;;
62523;SDS011;53689;56.878;60.672;2023-07-20T03:13:38;9.02;;;6.57;;
62523;SDS011;53689;56.878;60.672;2023-07-20T03:16:07;8.35;;;5.55;;
62523;SDS011;53689;56.878;60.672;2023-07-20T03:18:35;7.18;;;5.82;;
62523;SDS011;53689;56.878;60.672;2023-07-20T03:21:03;9.10;;;5.80;;
62523;SDS011;53689;56.878;60.672;2023-07-20T03:23:31;7.28;;;5.90;;
62523;SDS011;53689;56.878;60.672;2023-07-20T03:25:59;7.78;;;5.50;;
62523;SDS011;53689;56.878;60.672;2023-07-20T03:28:27;10.40;;;5.45;;
62523;SDS011;53689;56.878;60.672;2023-07-20T03:30:55;8.23;;;6.13;;
62523;SDS011;53689;56.878;60.672;2023-07-20T03:35:55;8.75;;;6.22;;
62523;SDS011;53689;56.878;60.672;2023-07-20T03:38:23;8.00;;;5.50;;
62523;SDS011;53689;56.878;60.672;2023-07-20T03:40:51;8.32;;;5.68;;
62523;SDS011;53689;56.878;60.672;2023-07-20T03:43:19;8.57;;;5.70;;
62523;SDS011;53689;56.878;60.672;2023-07-20T03:45:47;8.93;;;5.82;;
62523;SDS011;53689;56.878;60.672;2023-07-20T03:48:15;8.20;;;6.00;;
62523;SDS011;53689;56.878;60.672;2023-07-20T03:50:45;8.65;;;5.65;;
62523;SDS011;53689;56.878;60.672;2023-07-20T03:53:14;8.25;;;5.45;;
62523;SDS011;53689;56.878;60.672;2023-07-20T03:55:44;7.03;;;5.50;;
62523;SDS011;53689;56.878;60.672;2023-07-20T03:58:12;8.35;;;5.82;;
62523;SDS011;53689;56.878;60.672;2023-07-20T04:00:42;6.75;;;5.43;;
62523;SDS011;53689;56.878;60.672;2023-07-20T04:03:11;9.25;;;6.05;;
62523;SDS011;53689;56.878;60.672;2023-07-20T04:05:39;8.60;;;5.55;;
62523;SDS011;53689;56.878;60.672;2023-07-20T04:08:08;7.80;;;5.68;;
62523;SDS011;53689;56.878;60.672;2023-07-20T04:10:36;7.95;;;5.70;;
62523;SDS011;53689;56.878;60.672;2023-07-20T04:13:04;9.07;;;6.20;;
62523;SDS011;53689;56.878;60.672;2023-07-20T04:15:31;9.38;;;6.22;;
62523;SDS011;53689;56.878;60.672;2023-07-20T04:17:59;8.65;;;6.07;;
62523;SDS011;53689;56.878;60.672;2023-07-20T04:20:27;9.50;;;5.28;;
62523;SDS011;53689;56.878;60.672;2023-07-20T04:22:55;7.68;;;5.45;;
62523;SDS011;53689;56.878;60.672;2023-07-20T04:25:25;7.80;;;5.80;;
62523;SDS011;53689;56.878;60.672;2023-07-20T04:27:52;8.25;;;5.35;;
62523;SDS011;53689;56.878;60.672;2023-07-20T04:30:20;10.77;;;6.68;;
62523;SDS011;53689;56.878;60.672;2023-07-20T04:32:48;9.15;;;7.10;;
62523;SDS011;53689;56.878;60.672;2023-07-20T04:35:17;9.25;;;6.30;;
62523;SDS011;53689;56.878;60.672;2023-07-20T04:38:07;8.98;;;6.15;;
62523;SDS011;53689;56.878;60.672;2023-07-20T04:40:36;9.98;;;6.18;;
62523;SDS011;53689;56.878;60.672;2023-07-20T04:43:05;10.68;;;6.53;;
62523;SDS011;53689;56.878;60.672;2023-07-20T04:45:33;14.00;;;8.63;;
62523;SDS011;53689;56.878;60.672;2023-07-20T04:48:01;11.13;;;8.18;;
62523;SDS011;53689;56.878;60.672;2023-07-20T04:50:30;9.85;;;7.18;;
62523;SDS011;53689;56.878;60.672;2023-07-20T04:52:58;11.60;;;7.80;;
62523;SDS011;53689;56.878;60.672;2023-07-20T04:55:26;12.90;;;7.82;;
62523;SDS011;53689;56.878;60.672;2023-07-20T04:57:55;12.50;;;7.55;;
62523;SDS011;53689;56.878;60.672;2023-07-20T05:00:24;10.10;;;7.50;;
62523;SDS011;53689;56.878;60.672;2023-07-20T05:02:52;10.80;;;7.40;;
62523;SDS011;53689;56.878;60.672;2023-07-20T05:05:20;9.30;;;6.75;;
62523;SDS011;53689;56.878;60.672;2023-07-20T05:07:48;11.88;;;6.70;;
62523;SDS011;53689;56.878;60.672;2023-07-20T05:10:16;12.00;;;7.53;;
62523;SDS011;53689;56.878;60.672;2023-07-20T05:12:44;12.00;;;7.70;;
62523;SDS011;53689;56.878;60.672;2023-07-20T05:15:13;11.45;;;7.90;;
62523;SDS011;53689;56.878;60.672;2023-07-20T05:20:08;17.63;;;10.20;;
62523;SDS011;53689;56.878;60.672;2023-07-20T05:22:37;17.48;;;10.18;;
62523;SDS011;53689;56.878;60.672;2023-07-20T05:25:05;15.52;;;10.88;;
62523;SDS011;53689;56.878;60.672;2023-07-20T05:27:34;23.13;;;16.30;;
62523;SDS011;53689;56.878;60.672;2023-07-20T05:30:01;15.98;;;11.18;;
62523;SDS011;53689;56.878;60.672;2023-07-20T05:32:31;18.23;;;10.10;;
62523;SDS011;53689;56.878;60.672;2023-07-20T05:34:59;15.82;;;9.55;;
62523;SDS011;53689;56.878;60.672;2023-07-20T05:37:27;15.45;;;9.20;;
62523;SDS011;53689;56.878;60.672;2023-07-20T05:39:55;10.43;;;7.80;;
62523;SDS011;53689;56.878;60.672;2023-07-20T05:42:22;17.35;;;10.35;;
62523;SDS011;53689;56.878;60.672;2023-07-20T05:44:50;28.48;;;20.77;;
62523;SDS011;53689;56.878;60.672;2023-07-20T05:47:18;28.85;;;22.63;;
62523;SDS011;53689;56.878;60.672;2023-07-20T05:49:47;27.88;;;21.17;;
62523;SDS011;53689;56.878;60.672;2023-07-20T05:52:14;21.05;;;17.35;;
62523;SDS011;53689;56.878;60.672;2023-07-20T05:54:42;25.17;;;19.08;;
62523;SDS011;53689;56.878;60.672;2023-07-20T05:57:10;17.02;;;11.38;;
62523;SDS011;53689;56.878;60.672;2023-07-20T05:59:38;17.63;;;10.45;;
62523;SDS011;53689;56.878;60.672;2023-07-20T06:02:06;15.32;;;10.05;;
62523;SDS011;53689;56.878;60.672;2023-07-20T06:04:34;14.02;;;8.98;;
62523;SDS011;53689;56.878;60.672;2023-07-20T06:07:03;15.38;;;11.02;;
62523;SDS011;53689;56.878;60.672;2023-07-20T06:09:31;23.17;;;19.17;;
62523;SDS011;53689;56.878;60.672;2023-07-20T06:11:58;14.43;;;10.02;;
62523;SDS011;53689;56.878;60.672;2023-07-20T06:14:26;21.38;;;17.55;;
62523;SDS011;53689;56.878;60.672;2023-07-20T06:16:54;15.48;;;11.05;;
62523;SDS011;53689;56.878;60.672;2023-07-20T06:19:21;14.80;;;10.77;;
62523;SDS011;53689;56.878;60.672;2023-07-20T06:21:49;17.83;;;13.68;;
62523;SDS011;53689;56.878;60.672;2023-07-20T06:24:18;17.98;;;12.40;;
62523;SDS011;53689;56.878;60.672;2023-07-20T06:26:46;28.00;;;21.23;;
62523;SDS011;53689;56.878;60.672;2023-07-20T06:29:14;25.85;;;16.02;;
62523;SDS011;53689;56.878;60.672;2023-07-20T06:31:41;14.75;;;11.45;;
62523;SDS011;53689;56.878;60.672;2023-07-20T06:34:09;14.93;;;10.85;;
62523;SDS011;53689;56.878;60.672;2023-07-20T06:36:37;18.17;;;12.48;;
62523;SDS011;53689;56.878;60.672;2023-07-20T06:39:05;16.55;;;10.40;;
62523;SDS011;53689;56.878;60.672;2023-07-20T06:41:37;12.20;;;9.30;;
62523;SDS011;53689;56.878;60.672;2023-07-20T06:44:08;12.00;;;7.68;;
62523;SDS011;53689;56.878;60.672;2023-07-20T06:46:35;26.08;;;13.23;;
62523;SDS011;53689;56.878;60.672;2023-07-20T06:49:05;13.07;;;7.47;;
62523;SDS011;53689;56.878;60.672;2023-07-20T06:51:36;10.23;;;7.10;;
62523;SDS011;53689;56.878;60.672;2023-07-20T06:54:04;8.63;;;6.45;;
62523;SDS011;53689;56.878;60.672;2023-07-20T06:56:31;14.48;;;9.02;;
62523;SDS011;53689;56.878;60.672;2023-07-20T06:59:01;21.00;;;14.25;;
62523;SDS011;53689;56.878;60.672;2023-07-20T07:01:29;22.23;;;15.90;;
62523;SDS011;53689;56.878;60.672;2023-07-20T07:03:56;15.93;;;10.00;;
62523;SDS011;53689;56.878;60.672;2023-07-20T07:06:24;12.02;;;7.78;;
62523;SDS011;53689;56.878;60.672;2023-07-20T07:08:52;10.23;;;7.20;;
62523;SDS011;53689;56.878;60.672;2023-07-20T07:11:20;11.38;;;7.68;;
62523;SDS011;53689;56.878;60.672;2023-07-20T07:13:48;11.63;;;7.07;;
62523;SDS011;53689;56.878;60.672;2023-07-20T07:16:18;11.13;;;7.32;;
62523;SDS011;53689;56.878;60.672;2023-07-20T07:18:47;12.02;;;7.32;;
62523;SDS011;53689;56.878;60.672;2023-07-20T07:21:15;8.77;;;7.13;;
62523;SDS011;53689;56.878;60.672;2023-07-20T07:23:42;10.25;;;7.72;;
62523;SDS011;53689;56.878;60.672;2023-07-20T07:26:10;17.30;;;11.88;;
62523;SDS011;53689;56.878;60.672;2023-07-20T07:28:38;20.55;;;16.67;;
62523;SDS011;53689;56.878;60.672;2023-07-20T07:31:05;23.38;;;12.63;;
62523;SDS011;53689;56.878;60.672;2023-07-20T07:33:36;15.27;;;10.20;;
62523;SDS011;53689;56.878;60.672;2023-07-20T07:36:04;14.10;;;8.50;;
62523;SDS011;53689;56.878;60.672;2023-07-20T07:38:32;14.45;;;10.38;;
62523;SDS011;53689;56.878;60.672;2023-07-20T07:41:19;11.48;;;8.95;;
62523;SDS011;53689;56.878;60.672;2023-07-20T07:43:47;13.43;;;8.80;;
62523;SDS011;53689;56.878;60.672;2023-07-20T07:46:14;12.02;;;9.35;;
62523;SDS011;53689;56.878;60.672;2023-07-20T07:48:44;10.30;;;7.43;;
62523;SDS011;53689;56.878;60.672;2023-07-20T07:51:11;11.32;;;7.18;;
62523;SDS011;53689;56.878;60.672;2023-07-20T07:53:39;13.02;;;7.88;;
62523;SDS011;53689;56.878;60.672;2023-07-20T07:56:07;12.73;;;9.32;;
62523;SDS011;53689;56.878;60.672;2023-07-20T07:58:34;12.50;;;7.85;;
62523;SDS011;53689;56.878;60.672;2023-07-20T08:01:02;8.00;;;6.22;;
62523;SDS011;53689;56.878;60.672;2023-07-20T08:03:30;9.93;;;7.38;;
62523;SDS011;53689;56.878;60.672;2023-07-20T08:05:59;12.57;;;10.52;;
62523;SDS011;53689;56.878;60.672;2023-07-20T08:08:26;10.05;;;7.65;;
62523;SDS011;53689;56.878;60.672;2023-07-20T08:10:54;13.18;;;9.88;;
62523;SDS011;53689;56.878;60.672;2023-07-20T08:13:22;10.60;;;9.20;;
62523;SDS011;53689;56.878;60.672;2023-07-20T08:15:50;10.55;;;6.35;;
62523;SDS011;53689;56.878;60.672;2023-07-20T08:18:18;11.75;;;7.18;;
62523;SDS011;53689;56.878;60.672;2023-07-20T08:20:46;12.88;;;7.63;;
62523;SDS011;53689;56.878;60.672;2023-07-20T08:23:16;9.75;;;7.60;;
62523;SDS011;53689;56.878;60.672;2023-07-20T08:25:43;13.82;;;8.15;;
62523;SDS011;53689;56.878;60.672;2023-07-20T08:28:11;12.98;;;9.15;;
62523;SDS011;53689;56.878;60.672;2023-07-20T08:30:41;18.38;;;10.75;;
62523;SDS011;53689;56.878;60.672;2023-07-20T08:33:10;13.93;;;7.70;;
62523;SDS011;53689;56.878;60.672;2023-07-20T08:35:40;10.90;;;6.18;;
62523;SDS011;53689;56.878;60.672;2023-07-20T08:38:08;10.43;;;7.40;;
62523;SDS011;53689;56.878;60.672;2023-07-20T08:40:40;9.35;;;6.72;;
62523;SDS011;53689;56.878;60.672;2023-07-20T08:43:10;9.05;;;6.38;;
62523;SDS011;53689;56.878;60.672;2023-07-20T08:45:38;9.25;;;6.20;;
62523;SDS011;53689;56.878;60.672;2023-07-20T08:48:07;11.18;;;7.22;;
62523;SDS011;53689;56.878;60.672;2023-07-20T08:50:35;10.15;;;7.40;;
62523;SDS011;53689;56.878;60.672;2023-07-20T08:53:02;10.82;;;6.53;;
62523;SDS011;53689;56.878;60.672;2023-07-20T08:55:30;9.40;;;7.15;;
62523;SDS011;53689;56.878;60.672;2023-07-20T08:58:00;11.48;;;6.88;;
62523;SDS011;53689;56.878;60.672;2023-07-20T09:00:29;8.85;;;7.45;;
62523;SDS011;53689;56.878;60.672;2023-07-20T09:02:58;10.35;;;7.53;;
62523;SDS011;53689;56.878;60.672;2023-07-20T09:05:27;9.00;;;7.20;;
62523;SDS011;53689;56.878;60.672;2023-07-20T09:07:55;11.75;;;7.72;;
62523;SDS011;53689;56.878;60.672;2023-07-20T09:10:23;10.73;;;7.82;;
62523;SDS011;53689;56.878;60.672;2023-07-20T09:12:51;12.02;;;8.70;;
62523;SDS011;53689;56.878;60.672;2023-07-20T09:15:20;10.45;;;8.60;;
62523;SDS011;53689;56.878;60.672;2023-07-20T09:17:49;16.10;;;13.80;;
62523;SDS011;53689;56.878;60.672;2023-07-20T09:20:18;20.33;;;14.88;;
62523;SDS011;53689;56.878;60.672;2023-07-20T09:22:50;14.23;;;8.98;;
62523;SDS011;53689;56.878;60.672;2023-07-20T09:25:18;14.75;;;8.73;;
62523;SDS011;53689;56.878;60.672;2023-07-20T09:27:49;18.88;;;12.43;;
62523;SDS011;53689;56.878;60.672;2023-07-20T09:30:19;11.93;;;9.23;;
62523;SDS011;53689;56.878;60.672;2023-07-20T09:32:57;16.90;;;10.20;;
62523;SDS011;53689;56.878;60.672;2023-07-20T09:35:26;12.20;;;7.05;;
62523;SDS011;53689;56.878;60.672;2023-07-20T09:38:08;18.25;;;8.63;;
62523;SDS011;53689;56.878;60.672;2023-07-20T09:40:38;14.73;;;10.07;;
62523;SDS011;53689;56.878;60.672;2023-07-20T09:43:09;17.60;;;11.60;;
62523;SDS011;53689;56.878;60.672;2023-07-20T09:45:42;14.88;;;10.23;;
62523;SDS011;53689;56.878;60.672;2023-07-20T09:48:12;17.80;;;8.20;;
62523;SDS011;53689;56.878;60.672;2023-07-20T09:50:49;12.25;;;7.60;;
62523;SDS011;53689;56.878;60.672;2023-07-20T09:53:18;14.48;;;7.43;;
62523;SDS011;53689;56.878;60.672;2023-07-20T09:55:46;14.85;;;8.93;;
62523;SDS011;53689;56.878;60.672;2023-07-20T09:58:15;16.63;;;8.93;;
62523;SDS011;53689;56.878;60.672;2023-07-20T10:00:45;13.57;;;7.90;;
62523;SDS011;53689;56.878;60.672;2023-07-20T10:03:20;15.35;;;7.78;;
62523;SDS011;53689;56.878;60.672;2023-07-20T10:05:51;9.75;;;7.32;;
62523;SDS011;53689;56.878;60.672;2023-07-20T10:08:23;12.93;;;7.28;;
62523;SDS011;53689;56.878;60.672;2023-07-20T10:10:55;15.95;;;9.65;;
62523;SDS011;53689;56.878;60.672;2023-07-20T10:13:26;8.13;;;6.43;;
62523;SDS011;53689;56.878;60.672;2023-07-20T10:15:57;9.17;;;6.03;;
62523;SDS011;53689;56.878;60.672;2023-07-20T10:18:31;9.77;;;6.00;;
62523;SDS011;53689;56.878;60.672;2023-07-20T10:21:05;8.18;;;6.03;;
62523;SDS011;53689;56.878;60.672;2023-07-20T10:23:36;12.15;;;5.78;;
62523;SDS011;53689;56.878;60.672;2023-07-20T10:26:05;10.80;;;6.90;;
62523;SDS011;53689;56.878;60.672;2023-07-20T10:28:34;35.33;;;7.82;;
62523;SDS011;53689;56.878;60.672;2023-07-20T10:31:03;13.00;;;6.00;;
62523;SDS011;53689;56.878;60.672;2023-07-20T10:33:33;36.90;;;13.05;;
62523;SDS011;53689;56.878;60.672;2023-07-20T10:36:01;23.17;;;14.50;;
62523;SDS011;53689;56.878;60.672;2023-07-20T10:38:40;19.05;;;8.52;;
62523;SDS011;53689;56.878;60.672;2023-07-20T10:41:18;14.27;;;9.33;;
62523;SDS011;53689;56.878;60.672;2023-07-20T10:43:47;17.63;;;8.60;;
62523;SDS011;53689;56.878;60.672;2023-07-20T10:46:17;43.38;;;18.10;;
62523;SDS011;53689;56.878;60.672;2023-07-20T10:49:01;45.25;;;20.88;;
62523;SDS011;53689;56.878;60.672;2023-07-20T10:51:30;35.35;;;17.73;;
62523;SDS011;53689;56.878;60.672;2023-07-20T10:54:07;25.20;;;13.00;;
62523;SDS011;53689;56.878;60.672;2023-07-20T10:56:35;24.23;;;14.30;;
62523;SDS011;53689;56.878;60.672;2023-07-20T10:59:04;21.77;;;14.85;;
62523;SDS011;53689;56.878;60.672;2023-07-20T11:01:46;14.57;;;9.00;;
62523;SDS011;53689;56.878;60.672;2023-07-20T11:04:14;13.93;;;8.35;;
62523;SDS011;53689;56.878;60.672;2023-07-20T11:06:42;11.38;;;7.18;;
62523;SDS011;53689;56.878;60.672;2023-07-20T11:09:11;11.02;;;6.97;;
62523;SDS011;53689;56.878;60.672;2023-07-20T11:11:40;12.63;;;9.13;;
62523;SDS011;53689;56.878;60.672;2023-07-20T11:14:09;18.55;;;9.13;;
62523;SDS011;53689;56.878;60.672;2023-07-20T11:16:38;24.03;;;8.57;;
62523;SDS011;53689;56.878;60.672;2023-07-20T11:22:02;12.45;;;7.53;;
62523;SDS011;53689;56.878;60.672;2023-07-20T11:24:32;13.18;;;8.02;;
62523;SDS011;53689;56.878;60.672;2023-07-20T11:27:00;15.32;;;9.60;;
62523;SDS011;53689;56.878;60.672;2023-07-20T11:29:28;16.13;;;13.18;;
62523;SDS011;53689;56.878;60.672;2023-07-20T11:32:00;12.63;;;8.43;;
62523;SDS011;53689;56.878;60.672;2023-07-20T11:34:32;15.40;;;8.35;;
62523;SDS011;53689;56.878;60.672;2023-07-20T11:37:01;20.90;;;14.07;;
62523;SDS011;53689;56.878;60.672;2023-07-20T11:39:32;12.65;;;7.97;;
62523;SDS011;53689;56.878;60.672;2023-07-20T11:42:00;11.77;;;7.32;;
62523;SDS011;53689;56.878;60.672;2023-07-20T11:44:28;10.45;;;6.72;;
62523;SDS011;53689;56.878;60.672;2023-07-20T11:47:00;10.07;;;6.95;;
62523;SDS011;53689;56.878;60.672;2023-07-20T11:49:28;11.93;;;7.10;;
62523;SDS011;53689;56.878;60.672;2023-07-20T11:52:00;11.55;;;8.32;;
62523;SDS011;53689;56.878;60.672;2023-07-20T11:54:28;10.32;;;6.65;;
62523;SDS011;53689;56.878;60.672;2023-07-20T11:57:00;11.70;;;8.40;;
62523;SDS011;53689;56.878;60.672;2023-07-20T11:59:28;11.85;;;7.50;;
62523;SDS011;53689;56.878;60.672;2023-07-20T12:01:55;12.55;;;7.13;;
62523;SDS011;53689;56.878;60.672;2023-07-20T12:04:23;13.38;;;7.60;;
62523;SDS011;53689;56.878;60.672;2023-07-20T12:06:52;11.55;;;7.40;;
62523;SDS011;53689;56.878;60.672;2023-07-20T12:09:22;11.98;;;6.70;;
62523;SDS011;53689;56.878;60.672;2023-07-20T12:11:50;10.20;;;6.43;;
62523;SDS011;53689;56.878;60.672;2023-07-20T12:14:17;13.32;;;6.57;;
62523;SDS011;53689;56.878;60.672;2023-07-20T12:16:51;9.65;;;6.43;;
62523;SDS011;53689;56.878;60.672;2023-07-20T12:19:20;8.93;;;6.47;;
62523;SDS011;53689;56.878;60.672;2023-07-20T12:21:47;13.80;;;7.25;;
62523;SDS011;53689;56.878;60.672;2023-07-20T12:24:15;9.60;;;5.75;;
62523;SDS011;53689;56.878;60.672;2023-07-20T12:29:13;9.23;;;6.60;;
62523;SDS011;53689;56.878;60.672;2023-07-20T12:31:41;12.32;;;7.13;;
62523;SDS011;53689;56.878;60.672;2023-07-20T12:34:08;10.48;;;7.65;;
62523;SDS011;53689;56.878;60.672;2023-07-20T12:36:36;12.45;;;6.82;;
62523;SDS011;53689;56.878;60.672;2023-07-20T12:39:04;17.67;;;7.28;;
62523;SDS011;53689;56.878;60.672;2023-07-20T12:41:31;10.82;;;6.15;;
62523;SDS011;53689;56.878;60.672;2023-07-20T12:44:00;11.80;;;6.03;;
62523;SDS011;53689;56.878;60.672;2023-07-20T12:46:28;11.80;;;10.10;;
62523;SDS011;53689;56.878;60.672;2023-07-20T12:48:56;13.73;;;8.70;;
62523;SDS011;53689;56.878;60.672;2023-07-20T12:51:23;9.38;;;5.75;;
62523;SDS011;53689;56.878;60.672;2023-07-20T12:53:51;7.82;;;5.18;;
62523;SDS011;53689;56.878;60.672;2023-07-20T12:56:19;9.75;;;5.20;;
62523;SDS011;53689;56.878;60.672;2023-07-20T12:58:49;9.32;;;4.93;;
62523;SDS011;53689;56.878;60.672;2023-07-20T13:01:18;8.93;;;5.03;;
62523;SDS011;53689;56.878;60.672;2023-07-20T13:03:46;8.15;;;5.07;;
62523;SDS011;53689;56.878;60.672;2023-07-20T13:06:17;8.48;;;5.65;;
62523;SDS011;53689;56.878;60.672;2023-07-20T13:08:47;8.45;;;5.07;;
62523;SDS011;53689;56.878;60.672;2023-07-20T13:11:15;8.50;;;5.00;;
62523;SDS011;53689;56.878;60.672;2023-07-20T13:13:42;12.80;;;4.72;;
62523;SDS011;53689;56.878;60.672;2023-07-20T13:16:10;12.23;;;4.70;;
62523;SDS011;53689;56.878;60.672;2023-07-20T13:18:39;12.02;;;4.95;;
62523;SDS011;53689;56.878;60.672;2023-07-20T13:21:07;12.10;;;4.82;;
62523;SDS011;53689;56.878;60.672;2023-07-20T13:23:34;12.23;;;4.32;;
62523;SDS011;53689;56.878;60.672;2023-07-20T13:26:02;7.13;;;4.60;;
62523;SDS011;53689;56.878;60.672;2023-07-20T13:28:29;11.88;;;5.53;;
62523;SDS011;53689;56.878;60.672;2023-07-20T13:30:57;14.90;;;8.35;;
62523;SDS011;53689;56.878;60.672;2023-07-20T13:33:25;13.52;;;7.50;;
62523;SDS011;53689;56.878;60.672;2023-07-20T13:35:56;9.45;;;5.10;;
62523;SDS011;53689;56.878;60.672;2023-07-20T13:38:24;7.10;;;4.65;;
62523;SDS011;53689;56.878;60.672;2023-07-20T13:40:51;12.55;;;4.60;;
62523;SDS011;53689;56.878;60.672;2023-07-20T13:43:19;9.30;;;4.53;;
62523;SDS011;53689;56.878;60.672;2023-07-20T13:45:47;9.57;;;4.57;;
62523;SDS011;53689;56.878;60.672;2023-07-20T13:48:14;9.07;;;4.25;;
62523;SDS011;53689;56.878;60.672;2023-07-20T13:50:44;8.10;;;4.20;;
62523;SDS011;53689;56.878;60.672;2023-07-20T13:53:28;10.60;;;4.00;;
62523;SDS011;53689;56.878;60.672;2023-07-20T13:55:59;6.32;;;3.85;;
62523;SDS011;53689;56.878;60.672;2023-07-20T13:58:29;7.18;;;3.50;;
62523;SDS011;53689;56.878;60.672;2023-07-20T14:00:57;8.88;;;3.85;;
62523;SDS011;53689;56.878;60.672;2023-07-20T14:03:25;11.50;;;3.50;;
62523;SDS011;53689;56.878;60.672;2023-07-20T14:05:53;7.20;;;4.00;;
62523;SDS011;53689;56.878;60.672;2023-07-20T14:08:23;10.57;;;3.97;;
62523;SDS011;53689;56.878;60.672;2023-07-20T14:10:52;6.85;;;3.75;;
62523;SDS011;53689;56.878;60.672;2023-07-20T14:13:23;8.13;;;3.58;;
62523;SDS011;53689;56.878;60.672;2023-07-20T14:16:07;8.77;;;3.80;;
62523;SDS011;53689;56.878;60.672;2023-07-20T14:18:35;9.05;;;4.28;;
62523;SDS011;53689;56.878;60.672;2023-07-20T14:21:03;9.98;;;3.63;;
62523;SDS011;53689;56.878;60.672;2023-07-20T14:23:30;8.85;;;4.10;;
62523;SDS011;53689;56.878;60.672;2023-07-20T14:25:59;8.77;;;4.18;;
62523;SDS011;53689;56.878;60.672;2023-07-20T14:28:27;10.38;;;4.07;;
62523;SDS011;53689;56.878;60.672;2023-07-20T14:30:54;4.28;;;2.30;;
62523;SDS011;53689;56.878;60.672;2023-07-20T14:33:22;7.88;;;3.60;;
62523;SDS011;53689;56.878;60.672;2023-07-20T14:35:50;13.27;;;3.88;;
62523;SDS011;53689;56.878;60.672;2023-07-20T14:38:17;7.35;;;2.55;;
62523;SDS011;53689;56.878;60.672;2023-07-20T14:40:45;9.73;;;3.53;;
62523;SDS011;53689;56.878;60.672;2023-07-20T14:43:14;7.15;;;3.10;;
62523;SDS011;53689;56.878;60.672;2023-07-20T14:45:42;7.38;;;3.63;;
62523;SDS011;53689;56.878;60.672;2023-07-20T14:48:09;12.65;;;4.15;;
62523;SDS011;53689;56.878;60.672;2023-07-20T14:50:37;13.93;;;4.55;;